createdAt,value
2022-11-25T00:00:44.292Z,100929.59
2022-11-25T00:03:06.227Z,100928.78
2022-11-25T00:05:28.657Z,100930.72
2022-11-25T00:07:50.588Z,100927.16
2022-11-25T00:10:12.492Z,100919.22
2022-11-25T00:12:34.511Z,100916.47
2022-11-25T00:14:56.296Z,100904.69
2022-11-25T00:17:18.095Z,100901.44
2022-11-25T00:19:39.921Z,100906.13
2022-11-25T00:22:01.696Z,100892.72
2022-11-25T00:24:23.493Z,100895.78
2022-11-25T00:26:45.509Z,100896.09
2022-11-25T00:29:11.208Z,100891.75
2022-11-25T00:31:37.201Z,100885.94
2022-11-25T00:34:00.307Z,100887.84
2022-11-25T00:36:23.989Z,100895.78
2022-11-25T00:38:46.575Z,100896.94
2022-11-25T00:41:26.740Z,100893.03
2022-11-25T00:44:07.185Z,100894.34
2022-11-25T00:46:29.016Z,100887.69
2022-11-25T00:48:50.999Z,100886.59
2022-11-25T00:51:12.760Z,100889.00
2022-11-25T00:53:34.685Z,100887.06
2022-11-25T00:56:13.975Z,100879.63
2022-11-25T00:58:35.831Z,100885.13
2022-11-25T01:01:02.438Z,100884.47
2022-11-25T01:03:24.302Z,100887.22
2022-11-25T01:05:47.485Z,100886.13
2022-11-25T01:08:09.397Z,100888.53
2022-11-25T01:10:33.132Z,100879.47
2022-11-25T01:12:54.951Z,100886.56
2022-11-25T01:15:17.000Z,100886.56
2022-11-25T01:17:38.753Z,100881.91
2022-11-25T01:20:00.537Z,100883.81
2022-11-25T01:22:22.371Z,100882.72
2022-11-25T01:24:44.235Z,100879.63
2022-11-25T01:27:06.132Z,100879.63
2022-11-25T01:29:28.155Z,100883.19
2022-11-25T01:31:50.493Z,100885.13
2022-11-25T01:34:22.988Z,100896.13
2022-11-25T01:36:45.886Z,100896.94
2022-11-25T01:39:07.917Z,100890.78
2022-11-25T01:41:34.295Z,100892.41
2022-11-25T01:44:29.047Z,100897.28
2022-11-25T01:46:59.874Z,100897.09
2022-11-25T01:49:57.684Z,100899.53
2022-11-25T01:52:31.641Z,100905.03
2022-11-25T01:54:58.587Z,100903.09
2022-11-25T01:57:35.655Z,100899.19
2022-11-25T02:00:04.121Z,100890.13
2022-11-25T02:02:26.689Z,100896.13
2022-11-25T02:04:49.603Z,100894.97
2022-11-25T02:07:36.044Z,100899.84
2022-11-25T02:10:01.820Z,100895.47
2022-11-25T02:12:24.191Z,100897.59
2022-11-25T02:14:48.870Z,100895.16
2022-11-25T02:17:10.725Z,100905.50
2022-11-25T02:19:57.177Z,100911.50
2022-11-25T02:22:37.456Z,100912.28
2022-11-25T02:25:24.633Z,100926.53
2022-11-25T02:27:52.011Z,100923.78
2022-11-25T02:30:14.584Z,100931.72
2022-11-25T02:32:36.457Z,100919.88
2022-11-25T02:34:58.298Z,100922.81
2022-11-25T02:37:24.518Z,100927.66
2022-11-25T02:39:49.657Z,100926.56
2022-11-25T02:42:11.902Z,100923.16
2022-11-25T02:44:34.278Z,100926.69
2022-11-25T02:46:56.252Z,100931.53
2022-11-25T02:49:18.042Z,100938.34
2022-11-25T02:51:44.890Z,100941.25
2022-11-25T02:54:07.374Z,100937.84
2022-11-25T02:56:33.838Z,100943.19
2022-11-25T02:58:56.522Z,100936.22
2022-11-25T03:01:21.247Z,100945.94
2022-11-25T03:03:45.041Z,100944.97
2022-11-25T03:06:07.829Z,100946.56
2022-11-25T03:08:29.642Z,100943.50
2022-11-25T03:10:51.644Z,100948.66
2022-11-25T03:13:13.554Z,100942.53
2022-11-25T03:15:37.292Z,100942.53
2022-11-25T03:17:59.273Z,100946.88
2022-11-25T03:20:22.218Z,100960.00
2022-11-25T03:22:44.716Z,100954.00
2022-11-25T03:25:07.120Z,100956.44
2022-11-25T03:27:30.462Z,100947.38
2022-11-25T03:29:53.184Z,100945.75
2022-11-25T03:32:16.097Z,100924.56
2022-11-25T03:34:38.620Z,100897.53
2022-11-25T03:37:00.744Z,100884.56
2022-11-25T03:39:25.377Z,100884.56
2022-11-25T03:41:47.167Z,100893.94
2022-11-25T03:44:09.016Z,100905.44
2022-11-25T03:46:31.512Z,100910.63
2022-11-25T03:48:55.341Z,100910.63
2022-11-25T03:51:17.834Z,100900.41
2022-11-25T03:53:39.741Z,100898.81
2022-11-25T03:56:03.649Z,100898.81
2022-11-25T03:58:25.593Z,100910.94
2022-11-25T04:00:47.603Z,100921.13
2022-11-25T04:03:09.949Z,100930.88
2022-11-25T04:05:31.794Z,100943.34
2022-11-25T04:07:58.201Z,100955.16
2022-11-25T04:10:21.085Z,100948.03
2022-11-25T04:12:48.697Z,100950.78
2022-11-25T04:15:33.438Z,100952.72
2022-11-25T04:17:55.880Z,100961.81
2022-11-25T04:20:17.880Z,100966.81
2022-11-25T04:22:45.831Z,100975.06
2022-11-25T04:25:10.679Z,100975.38
2022-11-25T04:27:32.854Z,100981.22
2022-11-25T04:29:54.732Z,100988.66
2022-11-25T04:32:17.505Z,100998.06
2022-11-25T04:34:40.520Z,100989.31
2022-11-25T04:37:03.462Z,101001.13
2022-11-25T04:39:26.931Z,100994.66
2022-11-25T04:42:12.493Z,101007.13
2022-11-25T04:44:34.890Z,101011.47
2022-11-25T04:46:57.641Z,101014.88
2022-11-25T04:49:19.534Z,101012.44
2022-11-25T04:51:41.374Z,101013.09
2022-11-25T04:54:03.329Z,101013.75
2022-11-25T04:56:26.796Z,101017.97
2022-11-25T04:59:09.154Z,101023.47
2022-11-25T05:01:34.889Z,101036.22
2022-11-25T05:04:12.575Z,101032.66
2022-11-25T05:06:34.369Z,101035.41
2022-11-25T05:08:56.444Z,101047.22
2022-11-25T05:11:20.385Z,101039.31
2022-11-25T05:13:42.657Z,101036.88
2022-11-25T05:16:04.865Z,101051.28
2022-11-25T05:18:26.763Z,101042.22
2022-11-25T05:20:48.529Z,101037.34
2022-11-25T05:23:13.434Z,101030.53
2022-11-25T05:25:35.730Z,101033.28
2022-11-25T05:28:36.020Z,101039.44
2022-11-25T05:30:58.656Z,101044.75
2022-11-25T05:33:20.807Z,101051.41
2022-11-25T05:35:42.802Z,101048.66
2022-11-25T05:38:04.686Z,101054.47
2022-11-25T05:40:27.775Z,101046.53
2022-11-25T05:43:01.902Z,101055.44
2022-11-25T05:45:25.509Z,101053.00
2022-11-25T05:47:47.379Z,101052.00
2022-11-25T05:50:13.493Z,101057.66
2022-11-25T05:52:36.194Z,101050.56
2022-11-25T05:54:58.020Z,101048.75
2022-11-25T05:57:21.230Z,101047.94
2022-11-25T05:59:50.031Z,101049.22
2022-11-25T06:02:19.115Z,101054.53
2022-11-25T06:04:41.449Z,101055.50
2022-11-25T06:07:04.028Z,101064.34
2022-11-25T06:09:25.866Z,101066.13
2022-11-25T06:11:47.773Z,101066.44
2022-11-25T06:14:10.091Z,101070.63
2022-11-25T06:16:32.186Z,101071.25
2022-11-25T06:19:08.343Z,101086.44
2022-11-25T06:21:31.662Z,101087.88
2022-11-25T06:23:53.479Z,101078.50
2022-11-25T06:26:20.039Z,101090.13
2022-11-25T06:28:42.509Z,101087.53
2022-11-25T06:31:10.503Z,101087.81
2022-11-25T06:33:38.315Z,101095.25
2022-11-25T06:36:06.415Z,101092.50
2022-11-25T06:38:28.363Z,101096.41
2022-11-25T06:40:50.307Z,101103.00
2022-11-25T06:43:12.167Z,101101.38
2022-11-25T06:45:34.328Z,101105.56
2022-11-25T06:47:57.286Z,101107.81
2022-11-25T06:50:19.483Z,101115.25
2022-11-25T06:52:41.316Z,101117.16
2022-11-25T06:55:04.684Z,101124.09
2022-11-25T06:57:26.559Z,101140.09
2022-11-25T06:59:48.561Z,101127.97
2022-11-25T07:02:12.464Z,101141.72
2022-11-25T07:04:35.296Z,101143.16
2022-11-25T07:06:57.313Z,101144.25
2022-11-25T07:09:22.666Z,101147.31
2022-11-25T07:11:44.485Z,101146.53
2022-11-25T07:14:12.104Z,101149.56
2022-11-25T07:16:34.875Z,101153.13
2022-11-25T07:18:59.898Z,101152.00
2022-11-25T07:21:24.890Z,101152.31
2022-11-25T07:23:47.732Z,101161.34
2022-11-25T07:26:21.789Z,101171.25
2022-11-25T07:28:44.292Z,101178.16
2022-11-25T07:31:32.435Z,101172.97
2022-11-25T07:33:59.726Z,101174.09
2022-11-25T07:36:22.245Z,101173.28
2022-11-25T07:38:46.737Z,101187.84
2022-11-25T07:41:13.397Z,101192.19
2022-11-25T07:43:36.249Z,101185.91
2022-11-25T07:46:14.238Z,101195.44
2022-11-25T07:48:36.070Z,101203.34
2022-11-25T07:50:57.885Z,101208.03
2022-11-25T07:53:19.730Z,101220.66
2022-11-25T07:55:41.764Z,101211.59
2022-11-25T07:58:03.904Z,101208.53
2022-11-25T08:00:25.990Z,101216.78
2022-11-25T08:02:47.807Z,101223.59
2022-11-25T08:05:10.001Z,101226.03
2022-11-25T08:07:36.296Z,101230.41
2022-11-25T08:09:58.712Z,101234.44
2022-11-25T08:12:20.577Z,101242.06
2022-11-25T08:14:42.588Z,101252.44
2022-11-25T08:17:06.099Z,101250.50
2022-11-25T08:19:31.421Z,101251.81
2022-11-25T08:21:54.578Z,101247.00
2022-11-25T08:24:20.430Z,101246.41
2022-11-25T08:26:43.066Z,101246.88
2022-11-25T08:29:07.418Z,101252.59
2022-11-25T08:31:36.610Z,101257.16
2022-11-25T08:33:59.329Z,101261.50
2022-11-25T08:36:22.939Z,101261.72
2022-11-25T08:38:48.496Z,101265.78
2022-11-25T08:41:22.116Z,101276.66
2022-11-25T08:43:44.164Z,101273.25
2022-11-25T08:46:18.168Z,101278.00
2022-11-25T08:48:41.140Z,101274.31
2022-11-25T08:51:08.629Z,101282.13
2022-11-25T08:53:30.513Z,101272.44
2022-11-25T08:55:52.319Z,101276.38
2022-11-25T08:58:14.314Z,101283.19
2022-11-25T09:00:38.119Z,101282.44
2022-11-25T09:03:00.031Z,101286.66
2022-11-25T09:05:22.059Z,101284.91
2022-11-25T09:07:44.390Z,101288.66
2022-11-25T09:10:10.266Z,101299.34
2022-11-25T09:12:32.214Z,101303.41
2022-11-25T09:14:54.001Z,101310.22
2022-11-25T09:17:16.508Z,101313.66
2022-11-25T09:19:39.325Z,101318.81
2022-11-25T09:22:01.193Z,101318.69
2022-11-25T09:24:23.156Z,101317.25
2022-11-25T09:26:45.548Z,101319.25
2022-11-25T09:29:08.581Z,101328.81
2022-11-25T09:31:30.683Z,101338.03
2022-11-25T09:33:52.925Z,101335.97
2022-11-25T09:36:17.426Z,101340.53
2022-11-25T09:38:43.113Z,101350.09
2022-11-25T09:41:44.535Z,101355.47
2022-11-25T09:44:54.232Z,101357.44
2022-11-25T09:47:47.077Z,101366.84
2022-11-25T09:50:30.758Z,101363.97
2022-11-25T09:53:40.691Z,101368.53
2022-11-25T09:56:08.551Z,101370.03
2022-11-25T09:58:48.221Z,101366.81
2022-11-25T10:01:20.719Z,101378.00
2022-11-25T10:03:58.707Z,101381.09
2022-11-25T10:06:30.063Z,101386.94
2022-11-25T10:09:14.799Z,101386.78
2022-11-25T10:11:51.132Z,101378.38
2022-11-25T10:14:44.887Z,101385.22
2022-11-25T10:17:09.744Z,101382.78
2022-11-25T10:20:01.887Z,101382.63
2022-11-25T10:22:27.610Z,101398.22
2022-11-25T10:24:53.470Z,101395.13
2022-11-25T10:27:25.187Z,101394.31
2022-11-25T10:30:14.666Z,101396.13
2022-11-25T10:32:50.967Z,101401.63
2022-11-25T10:35:30.542Z,101413.28
2022-11-25T10:37:58.132Z,101403.72
2022-11-25T10:40:19.984Z,101411.97
2022-11-25T10:42:43.906Z,101417.34
2022-11-25T10:45:09.056Z,101425.44
2022-11-25T10:47:52.937Z,101420.56
2022-11-25T10:50:29.194Z,101428.38
2022-11-25T10:52:58.406Z,101434.56
2022-11-25T10:55:27.799Z,101431.78
2022-11-25T10:57:49.692Z,101435.84
2022-11-25T11:00:32.748Z,101436.34
2022-11-25T11:02:56.308Z,101437.31
2022-11-25T11:05:30.663Z,101442.66
2022-11-25T11:08:41.224Z,101440.56
2022-11-25T11:11:22.329Z,101437.97
2022-11-25T11:13:46.883Z,101442.03
2022-11-25T11:16:26.918Z,101442.84
2022-11-25T11:18:51.071Z,101446.41
2022-11-25T11:21:29.004Z,101458.91
2022-11-25T11:23:55.462Z,101456.78
2022-11-25T11:26:36.224Z,101461.81
2022-11-25T11:29:19.594Z,101471.38
2022-11-25T11:31:58.097Z,101473.97
2022-11-25T11:34:39.361Z,101475.13
2022-11-25T11:37:13.657Z,101475.63
2022-11-25T11:40:16.990Z,101473.47
2022-11-25T11:43:00.485Z,101478.50
2022-11-25T11:45:25.460Z,101482.56
2022-11-25T11:48:24.413Z,101484.66
2022-11-25T11:51:07.123Z,101491.00
2022-11-25T11:54:02.871Z,101497.50
2022-11-25T11:56:59.827Z,101499.59
2022-11-25T11:59:40.277Z,101502.19
2022-11-25T12:02:17.829Z,101499.56
2022-11-25T12:05:02.479Z,101503.63
2022-11-25T12:08:00.978Z,101516.78
2022-11-25T12:10:38.889Z,101505.25
2022-11-25T12:13:16.271Z,101516.78
2022-11-25T12:15:57.702Z,101509.78
2022-11-25T12:19:08.058Z,101518.25
2022-11-25T12:21:42.063Z,101520.03
2022-11-25T12:24:50.135Z,101522.25
2022-11-25T12:27:27.407Z,101520.66
2022-11-25T12:30:00.795Z,101529.44
2022-11-25T12:32:38.015Z,101533.78
2022-11-25T12:35:16.464Z,101536.53
2022-11-25T12:37:50.818Z,101531.16
2022-11-25T12:40:23.373Z,101533.28
2022-11-25T12:42:49.079Z,101536.69
2022-11-25T12:45:26.065Z,101541.09
2022-11-25T12:47:48.658Z,101544.78
2022-11-25T12:50:25.465Z,101555.34
2022-11-25T12:53:12.589Z,101564.59
2022-11-25T12:55:37.358Z,101561.97
2022-11-25T12:58:24.187Z,101567.31
2022-11-25T13:01:32.540Z,101569.44
2022-11-25T13:04:16.006Z,101574.50
2022-11-25T13:07:13.315Z,101575.81
2022-11-25T13:10:03.194Z,101580.25
2022-11-25T13:12:42.810Z,101585.47
2022-11-25T13:15:34.891Z,101594.25
2022-11-25T13:18:09.576Z,101595.59
2022-11-25T13:20:31.655Z,101602.59
2022-11-25T13:23:10.862Z,101604.06
2022-11-25T13:25:33.990Z,101612.56
2022-11-25T13:27:59.240Z,101607.66
2022-11-25T13:30:33.561Z,101611.56
2022-11-25T13:32:55.757Z,101611.44
2022-11-25T13:35:24.759Z,101627.34
2022-11-25T13:37:46.888Z,101622.31
2022-11-25T13:40:25.475Z,101630.59
2022-11-25T13:42:48.053Z,101628.81
2022-11-25T13:45:43.834Z,101624.09
2022-11-25T13:48:13.399Z,101635.47
2022-11-25T13:51:03.509Z,101625.72
2022-11-25T13:53:36.234Z,101632.06
2022-11-25T13:56:37.804Z,101639.88
2022-11-25T13:59:12.268Z,101636.63
2022-11-25T14:01:34.424Z,101644.59
2022-11-25T14:04:00.449Z,101641.34
2022-11-25T14:06:51.335Z,101650.13
2022-11-25T14:09:38.072Z,101650.28
2022-11-25T14:12:27.395Z,101662.78
2022-11-25T14:14:52.195Z,101657.25
2022-11-25T14:19:03.218Z,101655.34
2022-11-25T14:21:36.037Z,101659.56
2022-11-25T14:24:17.460Z,101665.09
2022-11-25T14:26:50.265Z,101667.03
2022-11-25T14:29:26.526Z,101671.44
2022-11-25T14:31:57.165Z,101671.75
2022-11-25T14:34:31.992Z,101681.50
2022-11-25T14:37:06.202Z,101684.59
2022-11-25T14:39:47.356Z,101684.94
2022-11-25T14:42:17.788Z,101690.47
2022-11-25T14:44:47.210Z,101698.75
2022-11-25T14:47:09.127Z,101709.81
2022-11-25T14:50:18.887Z,101708.34
2022-11-25T14:52:38.230Z,101712.22
2022-11-25T14:55:05.818Z,101707.84
2022-11-25T14:57:34.457Z,101721.66
2022-11-25T15:00:05.531Z,101732.22
2022-11-25T15:02:35.025Z,101723.44
2022-11-25T15:05:19.115Z,101726.84
2022-11-25T15:07:59.502Z,101743.59
2022-11-25T15:10:39.678Z,101752.03
2022-11-25T15:13:20.923Z,101752.50
2022-11-25T15:15:46.544Z,101754.63
2022-11-25T15:18:19.244Z,101750.88
2022-11-25T15:20:41.195Z,101765.31
2022-11-25T15:23:03.364Z,101762.72
2022-11-25T15:25:25.480Z,101765.63
2022-11-25T15:27:52.919Z,101770.47
2022-11-25T15:30:34.165Z,101773.34
2022-11-25T15:32:57.349Z,101775.13
2022-11-25T15:35:24.277Z,101774.44
2022-11-25T15:37:46.142Z,101783.66
2022-11-25T15:40:32.852Z,101787.41
2022-11-25T15:42:54.888Z,101791.91
2022-11-25T15:45:21.970Z,101794.81
2022-11-25T15:47:45.479Z,101792.19
2022-11-25T15:50:26.366Z,101793.97
2022-11-25T15:53:00.420Z,101804.94
2022-11-25T15:55:38.940Z,101812.03
2022-11-25T15:58:18.556Z,101813.59
2022-11-25T16:00:41.845Z,101822.63
2022-11-25T16:03:18.082Z,101820.31
2022-11-25T16:05:54.439Z,101822.19
2022-11-25T16:08:19.288Z,101837.84
2022-11-25T16:10:41.738Z,101840.22
2022-11-25T16:13:22.777Z,101841.44
2022-11-25T16:15:54.953Z,101849.84
2022-11-25T16:18:39.075Z,101862.59
2022-11-25T16:21:09.704Z,101860.28
2022-11-25T16:23:41.888Z,101874.66
2022-11-25T16:26:12.590Z,101874.75
2022-11-25T16:28:34.597Z,101880.09
2022-11-25T16:30:59.458Z,101887.84
2022-11-25T16:33:21.331Z,101897.22
2022-11-25T16:35:43.979Z,101914.69
2022-11-25T16:38:06.195Z,101914.69
2022-11-25T16:40:28.236Z,101911.94
2022-11-25T16:42:51.708Z,101920.19
2022-11-25T16:45:24.077Z,101920.19
2022-11-25T16:47:45.913Z,101928.47
2022-11-25T16:50:19.810Z,101927.84
2022-11-25T16:52:42.378Z,101933.63
2022-11-25T16:55:04.771Z,101934.78
2022-11-25T16:57:26.881Z,101939.16
2022-11-25T16:59:53.233Z,101935.88
2022-11-25T17:02:22.204Z,101954.34
2022-11-25T17:04:45.133Z,101960.19
2022-11-25T17:09:55.401Z,101969.13
2022-11-25T17:12:27.030Z,101973.03
2022-11-25T17:14:49.492Z,101970.81
2022-11-25T17:17:24.387Z,101970.34
2022-11-25T17:19:46.745Z,101979.50
2022-11-25T17:22:21.968Z,101979.50
2022-11-25T17:24:44.345Z,101986.44
2022-11-25T17:27:06.319Z,101990.63
2022-11-25T17:29:39.852Z,101986.22
2022-11-25T17:32:04.353Z,101987.63
2022-11-25T17:34:26.226Z,101995.38
2022-11-25T17:36:48.348Z,101997.59
2022-11-25T17:39:14.963Z,102002.31
2022-11-25T17:41:41.885Z,102012.31
2022-11-25T17:44:03.940Z,102009.63
2022-11-25T17:46:29.553Z,102021.22
2022-11-25T17:48:51.520Z,102028.47
2022-11-25T17:51:14.939Z,102037.03
2022-11-25T17:53:38.064Z,102037.63
2022-11-25T17:55:59.917Z,102040.66
2022-11-25T17:58:22.184Z,102043.69
2022-11-25T18:00:45.076Z,102050.63
2022-11-25T18:03:13.004Z,102053.16
2022-11-25T18:05:35.066Z,102055.09
2022-11-25T18:07:57.046Z,102063.66
2022-11-25T18:10:24.776Z,102069.44
2022-11-25T18:12:51.124Z,102076.34
2022-11-25T18:15:30.577Z,102079.13
2022-11-25T18:18:01.896Z,102081.38
2022-11-25T18:20:26.039Z,102085.00
2022-11-25T18:22:48.034Z,102091.91
2022-11-25T18:25:19.042Z,102089.47
2022-11-25T18:27:41.654Z,102098.00
2022-11-25T18:30:07.221Z,102101.88
2022-11-25T18:32:29.126Z,102104.91
2022-11-25T18:34:52.018Z,102104.91
2022-11-25T18:37:14.131Z,102105.22
2022-11-25T18:39:35.875Z,102109.66
2022-11-25T18:42:07.054Z,102107.19
2022-11-25T18:44:29.186Z,102114.13
2022-11-25T18:46:51.663Z,102111.66
2022-11-25T18:49:15.073Z,102121.34
2022-11-25T18:51:36.948Z,102127.94
2022-11-25T18:53:58.816Z,102131.81
2022-11-25T18:56:20.620Z,102139.53
2022-11-25T18:58:51.502Z,102142.88
2022-11-25T19:01:15.333Z,102146.19
2022-11-25T19:03:37.282Z,102147.31
2022-11-25T19:06:01.015Z,102140.19
2022-11-25T19:08:23.357Z,102146.25
2022-11-25T19:10:47.597Z,102142.97
2022-11-25T19:13:26.908Z,102149.88
2022-11-25T19:15:48.787Z,102160.66
2022-11-25T19:18:20.226Z,102169.50
2022-11-25T19:20:42.349Z,102170.34
2022-11-25T19:23:28.097Z,102167.94
2022-11-25T19:25:50.042Z,102169.41
2022-11-25T19:28:17.716Z,102171.88
2022-11-25T19:30:39.715Z,102180.72
2022-11-25T19:33:03.060Z,102178.03
2022-11-25T19:35:35.746Z,102180.00
2022-11-25T19:37:57.581Z,102189.38
2022-11-25T19:40:22.535Z,102199.03
2022-11-25T19:42:48.530Z,102197.97
2022-11-25T19:45:13.483Z,102207.06
2022-11-25T19:47:35.409Z,102212.31
2022-11-25T19:50:01.382Z,102203.53
2022-11-25T19:52:34.937Z,102210.41
2022-11-25T19:54:56.733Z,102222.78
2022-11-25T19:57:22.726Z,102221.16
2022-11-25T19:59:45.061Z,102235.16
2022-11-25T20:02:21.581Z,102229.13
2022-11-25T20:04:46.666Z,102237.94
2022-11-25T20:07:17.386Z,102236.59
2022-11-25T20:09:40.351Z,102235.22
2022-11-25T20:12:20.449Z,102246.47
2022-11-25T20:14:42.304Z,102249.78
2022-11-25T20:17:06.324Z,102255.28
2022-11-25T20:19:28.258Z,102262.44
2022-11-25T20:21:50.183Z,102261.06
2022-11-25T20:24:19.027Z,102263.31
2022-11-25T20:26:46.100Z,102271.00
2022-11-25T20:29:18.373Z,102277.34
2022-11-25T20:31:40.198Z,102273.50
2022-11-25T20:34:02.068Z,102280.66
2022-11-25T20:36:31.692Z,102280.13
2022-11-25T20:38:56.098Z,102285.66
2022-11-25T20:41:22.940Z,102280.69
2022-11-25T20:43:50.354Z,102285.63
2022-11-25T20:46:17.960Z,102293.34
2022-11-25T20:48:39.999Z,102298.56
2022-11-25T20:51:03.703Z,102299.69
2022-11-25T20:53:27.956Z,102301.06
2022-11-25T20:55:50.822Z,102309.81
2022-11-25T20:58:26.024Z,102312.06
2022-11-25T21:00:50.702Z,102315.63
2022-11-25T21:03:16.307Z,102315.91
2022-11-25T21:05:38.293Z,102323.59
2022-11-25T21:08:01.683Z,102316.75
2022-11-25T21:10:34.868Z,102315.38
2022-11-25T21:12:57.357Z,102326.09
2022-11-25T21:15:24.535Z,102328.84
2022-11-25T21:17:46.789Z,102329.91
2022-11-25T21:20:09.345Z,102332.91
2022-11-25T21:22:31.156Z,102340.63
2022-11-25T21:24:53.064Z,102340.63
2022-11-25T21:27:17.626Z,102347.19
2022-11-25T21:29:41.491Z,102351.03
2022-11-25T21:32:03.640Z,102354.34
2022-11-25T21:34:25.658Z,102347.19
2022-11-25T21:36:51.806Z,102348.31
2022-11-25T21:39:34.013Z,102348.84
2022-11-25T21:42:03.308Z,102355.69
2022-11-25T21:44:36.474Z,102361.47
2022-11-25T21:46:58.726Z,102369.97
2022-11-25T21:49:21.281Z,102378.44
2022-11-25T21:51:43.097Z,102379.81
2022-11-25T21:54:05.132Z,102378.19
2022-11-25T21:56:31.912Z,102381.19
2022-11-25T21:58:58.348Z,102388.91
2022-11-25T22:01:21.675Z,102394.91
2022-11-25T22:03:43.535Z,102394.91
2022-11-25T22:06:18.777Z,102396.00
2022-11-25T22:08:40.528Z,102397.94
2022-11-25T22:11:02.354Z,102400.38
2022-11-25T22:13:37.979Z,102408.34
2022-11-25T22:16:00.137Z,102405.88
2022-11-25T22:18:31.908Z,102400.38
2022-11-25T22:20:53.811Z,102406.97
2022-11-25T22:23:19.332Z,102406.69
2022-11-25T22:25:41.514Z,102411.09
2022-11-25T22:28:04.414Z,102411.91
2022-11-25T22:30:26.311Z,102413.03
2022-11-25T22:33:02.066Z,102413.84
2022-11-25T22:35:23.895Z,102416.84
2022-11-25T22:37:53.479Z,102417.94
2022-11-25T22:40:17.484Z,102425.06
2022-11-25T22:42:42.758Z,102422.63
2022-11-25T22:45:08.127Z,102424.50
2022-11-25T22:47:47.964Z,102428.91
2022-11-25T22:50:28.261Z,102428.09
2022-11-25T22:52:52.011Z,102438.50
2022-11-25T22:55:31.848Z,102437.13
2022-11-25T22:57:57.903Z,102437.13
2022-11-25T23:00:24.288Z,102445.34
2022-11-25T23:02:48.184Z,102448.09
2022-11-25T23:05:31.861Z,102450.84
2022-11-25T23:07:55.419Z,102455.50
2022-11-25T23:10:21.850Z,102463.16
2022-11-25T23:12:44.272Z,102460.69
2022-11-25T23:15:06.734Z,102462.59
2022-11-25T23:17:28.716Z,102466.72
2022-11-25T23:19:52.194Z,102460.41
2022-11-25T23:22:14.156Z,102463.41
2022-11-25T23:24:36.710Z,102464.78
2022-11-25T23:26:58.730Z,102471.63
2022-11-25T23:29:20.515Z,102473.00
2022-11-25T23:31:42.891Z,102480.66
2022-11-25T23:34:06.990Z,102488.06
2022-11-25T23:36:38.948Z,102491.34
2022-11-25T23:39:03.838Z,102487.19
2022-11-25T23:41:33.969Z,102493.78
2022-11-25T23:43:56.464Z,102491.84
2022-11-25T23:46:25.077Z,102497.63
2022-11-25T23:48:56.085Z,102497.88
2022-11-25T23:51:18.044Z,102495.97
2022-11-25T23:53:41.165Z,102505.00
2022-11-25T23:56:02.994Z,102508.28
2022-11-25T23:58:25.228Z,102512.97
